Time;durP1;ratioP1;P1;durP2;ratioP2;P2;SDS_P1;SDS_P2;PMS_P1;PMS_P2;Temp;Humidity;BMP_temperature;BMP_pressure;BME280_temperature;BME280_humidity;BME280_pressure;Samples;Min_cycle;Max_cycle;Signal;HPM_P1;HPM_P2
2023/05/14 00:00:22;;;;;;;9.40;6.57;;;12.60;99.90;;;;;;5016188;28;20390;-73
2023/05/14 00:02:47;;;;;;;8.38;6.50;;;12.60;99.90;;;;;;5016142;28;20041;-72
2023/05/14 00:05:13;;;;;;;8.13;6.20;;;12.50;99.90;;;;;;5015531;28;20052;-73
2023/05/14 00:07:39;;;;;;;9.48;6.20;;;12.50;99.90;;;;;;5015755;28;20437;-72
2023/05/14 00:10:05;;;;;;;12.02;6.32;;;12.50;99.90;;;;;;4998163;28;20050;-72
2023/05/14 00:12:31;;;;;;;8.85;6.18;;;12.50;99.90;;;;;;5015305;28;20050;-72
2023/05/14 00:14:56;;;;;;;8.20;5.78;;;12.50;99.90;;;;;;5015391;28;20128;-72
2023/05/14 00:17:22;;;;;;;9.20;5.93;;;12.50;99.90;;;;;;5015334;28;20045;-72
2023/05/14 00:19:48;;;;;;;7.72;6.20;;;12.50;99.90;;;;;;5015069;28;20057;-72
2023/05/14 00:22:14;;;;;;;8.43;5.80;;;12.50;99.90;;;;;;5016013;28;20049;-72
2023/05/14 00:24:39;;;;;;;11.10;6.32;;;12.50;99.90;;;;;;5015183;28;20038;-73
2023/05/14 00:27:06;;;;;;;10.00;6.15;;;12.50;99.90;;;;;;5015238;28;20046;-72
2023/05/14 00:29:31;;;;;;;9.23;5.93;;;12.40;99.90;;;;;;5013831;28;20050;-72
2023/05/14 00:31:57;;;;;;;11.35;6.30;;;12.40;99.90;;;;;;5015522;28;20050;-73
2023/05/14 00:34:24;;;;;;;8.40;6.25;;;12.40;99.90;;;;;;5015038;28;20081;-73
2023/05/14 00:36:50;;;;;;;9.05;5.97;;;12.40;99.90;;;;;;5014927;28;20505;-72
2023/05/14 00:39:16;;;;;;;11.13;6.63;;;12.40;99.90;;;;;;5013721;28;20130;-73
2023/05/14 00:41:41;;;;;;;10.95;6.43;;;12.40;99.90;;;;;;5014927;28;20132;-72
2023/05/14 00:44:07;;;;;;;8.57;6.30;;;12.40;99.90;;;;;;5014904;28;20073;-73
2023/05/14 00:46:33;;;;;;;10.38;7.07;;;12.30;99.90;;;;;;5014851;28;20490;-72
2023/05/14 00:48:59;;;;;;;8.90;7.03;;;12.40;99.90;;;;;;5014943;28;20434;-72
2023/05/14 00:51:25;;;;;;;9.38;6.32;;;12.30;99.90;;;;;;5015131;28;20046;-73
2023/05/14 00:53:51;;;;;;;10.50;6.80;;;12.30;99.90;;;;;;5014545;28;20041;-72
2023/05/14 00:56:18;;;;;;;11.05;7.57;;;12.30;99.90;;;;;;5013664;28;20525;-73
2023/05/14 00:58:44;;;;;;;10.00;7.10;;;12.30;99.90;;;;;;5015111;28;20057;-72
2023/05/14 01:01:11;;;;;;;8.55;6.70;;;12.30;99.90;;;;;;5014336;28;20049;-73
2023/05/14 01:03:37;;;;;;;11.20;6.82;;;12.20;99.90;;;;;;5014519;28;20115;-72
2023/05/14 01:06:35;;;;;;;10.82;7.20;;;12.20;99.90;;;;;;5015034;28;20050;-72
2023/05/14 01:09:12;;;;;;;9.70;7.40;;;12.20;99.90;;;;;;5014431;28;20045;-73
2023/05/14 01:12:10;;;;;;;9.27;6.90;;;12.20;99.90;;;;;;5014677;28;20399;-73
2023/05/14 01:14:46;;;;;;;11.63;7.18;;;12.10;99.90;;;;;;5016869;28;20125;-72
2023/05/14 01:17:13;;;;;;;11.90;6.93;;;12.10;99.90;;;;;;5016606;28;20545;-72
2023/05/14 01:19:44;;;;;;;9.10;6.93;;;12.10;99.90;;;;;;5015373;28;20060;-72
2023/05/14 01:22:10;;;;;;;10.32;7.00;;;12.00;99.90;;;;;;5014381;28;20057;-72
2023/05/14 01:24:36;;;;;;;9.98;7.07;;;12.00;99.90;;;;;;5014747;28;20112;-72
2023/05/14 01:27:42;;;;;;;8.85;6.75;;;12.00;99.90;;;;;;5014382;28;20042;-72
2023/05/14 01:30:11;;;;;;;10.02;7.20;;;12.10;99.90;;;;;;5013995;28;20085;-72
2023/05/14 01:32:39;;;;;;;9.18;6.57;;;12.00;99.90;;;;;;5014057;28;20089;-74
2023/05/14 01:35:06;;;;;;;10.23;6.93;;;12.00;99.90;;;;;;5012920;28;20049;-73
2023/05/14 01:37:33;;;;;;;10.95;7.13;;;12.00;99.90;;;;;;5013700;28;20475;-73
2023/05/14 01:39:59;;;;;;;11.77;7.93;;;12.00;99.90;;;;;;5013740;28;20487;-73
2023/05/14 01:42:26;;;;;;;11.75;6.65;;;11.90;99.90;;;;;;5013952;28;20042;-71
2023/05/14 01:44:52;;;;;;;11.50;7.13;;;11.90;99.90;;;;;;5014796;28;20374;-71
2023/05/14 01:47:18;;;;;;;9.20;6.60;;;11.90;99.90;;;;;;5014440;28;20057;-71
2023/05/14 01:49:43;;;;;;;8.30;6.50;;;11.90;99.90;;;;;;5013773;28;20088;-71
2023/05/14 01:52:09;;;;;;;9.13;6.15;;;11.90;99.90;;;;;;5012547;28;20046;-71
2023/05/14 01:54:35;;;;;;;11.40;7.65;;;11.80;99.90;;;;;;5014374;28;20104;-71
2023/05/14 01:57:01;;;;;;;10.35;7.65;;;11.80;99.90;;;;;;5012540;28;20041;-71
2023/05/14 01:59:28;;;;;;;11.40;7.20;;;11.80;99.90;;;;;;5013774;28;20136;-71
2023/05/14 02:01:54;;;;;;;10.55;7.45;;;11.70;99.90;;;;;;5014059;28;20107;-71
2023/05/14 02:04:20;;;;;;;9.63;6.35;;;11.70;99.90;;;;;;5016948;28;20052;-71
2023/05/14 02:06:46;;;;;;;9.27;6.60;;;11.70;99.90;;;;;;5017061;28;20046;-71
2023/05/14 02:09:11;;;;;;;10.27;7.25;;;11.70;99.90;;;;;;5018235;28;20046;-71
2023/05/14 02:11:37;;;;;;;11.23;6.88;;;11.70;99.90;;;;;;5017695;28;20045;-70
2023/05/14 02:14:03;;;;;;;10.35;6.93;;;11.60;99.90;;;;;;5017594;28;20398;-71
2023/05/14 02:16:28;;;;;;;12.50;7.00;;;11.60;99.90;;;;;;5017250;28;20136;-71
2023/05/14 02:18:54;;;;;;;12.00;7.32;;;11.60;99.90;;;;;;5017613;28;20534;-71
2023/05/14 02:21:20;;;;;;;8.35;6.45;;;11.60;99.90;;;;;;5017916;28;20058;-71
2023/05/14 02:23:47;;;;;;;11.10;7.28;;;11.60;99.90;;;;;;5017735;28;20451;-71
2023/05/14 02:26:12;;;;;;;11.15;7.22;;;11.50;99.90;;;;;;5017401;28;20112;-71
2023/05/14 02:28:38;;;;;;;11.23;7.18;;;11.50;99.90;;;;;;5000826;28;20406;-71
2023/05/14 02:31:04;;;;;;;9.93;7.38;;;11.50;99.90;;;;;;5017403;28;20137;-72
2023/05/14 02:33:30;;;;;;;12.77;7.20;;;11.50;99.90;;;;;;5016395;28;20038;-71
2023/05/14 02:35:55;;;;;;;14.60;7.50;;;11.40;99.90;;;;;;5018008;28;20065;-71
2023/05/14 02:38:22;;;;;;;11.40;6.75;;;11.40;99.90;;;;;;5016200;28;20083;-71
2023/05/14 02:40:47;;;;;;;10.32;7.65;;;11.40;99.90;;;;;;5017157;28;20058;-71
2023/05/14 02:43:13;;;;;;;10.70;7.32;;;11.40;99.90;;;;;;5017686;28;20041;-71
2023/05/14 02:45:39;;;;;;;9.98;7.50;;;11.30;99.90;;;;;;5016748;28;20142;-71
2023/05/14 02:48:05;;;;;;;12.50;7.35;;;11.30;99.90;;;;;;5017079;28;20096;-71
2023/05/14 02:50:30;;;;;;;9.93;7.50;;;11.30;99.90;;;;;;5016869;28;20509;-71
2023/05/14 02:52:56;;;;;;;10.50;7.22;;;11.20;99.90;;;;;;5016837;28;20038;-71
2023/05/14 02:55:22;;;;;;;8.77;7.45;;;11.20;99.90;;;;;;5015692;28;20045;-71
2023/05/14 02:57:48;;;;;;;11.10;7.63;;;11.20;99.90;;;;;;5016799;28;20133;-71
2023/05/14 03:00:13;;;;;;;9.95;7.50;;;11.10;99.90;;;;;;5015822;28;20050;-71
2023/05/14 03:02:39;;;;;;;8.00;6.70;;;11.10;99.90;;;;;;5016411;28;20081;-73
2023/05/14 03:05:05;;;;;;;10.40;7.43;;;11.10;99.90;;;;;;5016745;28;20049;-73
2023/05/14 03:07:31;;;;;;;11.50;6.75;;;11.10;99.90;;;;;;5016658;28;20483;-71
2023/05/14 03:09:59;;;;;;;9.75;6.65;;;11.10;99.90;;;;;;5017150;28;20128;-71
2023/05/14 03:12:24;;;;;;;10.82;7.45;;;11.00;99.90;;;;;;5017069;28;20065;-71
2023/05/14 03:14:50;;;;;;;9.43;6.78;;;11.00;99.90;;;;;;5015685;28;20487;-71
2023/05/14 03:17:16;;;;;;;13.65;7.93;;;10.90;99.90;;;;;;5016738;28;20057;-71
2023/05/14 03:19:41;;;;;;;10.32;7.28;;;10.90;99.90;;;;;;5016381;28;20050;-71
2023/05/14 03:22:07;;;;;;;10.43;6.93;;;10.90;99.90;;;;;;5017073;28;20072;-73
2023/05/14 03:24:33;;;;;;;8.93;7.00;;;10.90;99.90;;;;;;5015205;28;20441;-73
2023/05/14 03:26:59;;;;;;;9.05;6.93;;;10.90;99.90;;;;;;5016301;28;20048;-73
2023/05/14 03:29:25;;;;;;;8.52;6.10;;;10.90;99.90;;;;;;5016128;28;20050;-73
2023/05/14 03:31:50;;;;;;;11.68;7.13;;;10.80;99.90;;;;;;5015601;28;20042;-73
2023/05/14 03:34:16;;;;;;;9.25;6.35;;;10.70;99.90;;;;;;5016706;28;20075;-73
2023/05/14 03:36:42;;;;;;;10.98;7.40;;;10.60;99.90;;;;;;5015989;28;20045;-73
2023/05/14 03:39:08;;;;;;;11.68;7.22;;;10.70;99.90;;;;;;5015023;28;20362;-73
2023/05/14 03:41:35;;;;;;;13.55;7.78;;;10.70;99.90;;;;;;5016193;28;20046;-73
2023/05/14 03:44:00;;;;;;;11.32;7.50;;;10.70;99.90;;;;;;5015399;28;20053;-72
2023/05/14 03:46:26;;;;;;;11.63;7.35;;;10.70;99.90;;;;;;5015903;28;20056;-71
2023/05/14 03:48:52;;;;;;;13.07;8.32;;;10.70;99.90;;;;;;5015718;28;20100;-71
2023/05/14 03:51:17;;;;;;;11.77;7.93;;;10.80;99.90;;;;;;5014511;28;20089;-71
2023/05/14 03:53:43;;;;;;;11.82;8.57;;;10.80;99.90;;;;;;5015569;28;20041;-71
2023/05/14 03:56:09;;;;;;;13.18;8.32;;;10.80;99.90;;;;;;5015338;28;20046;-71
2023/05/14 03:58:35;;;;;;;11.18;8.50;;;10.80;99.90;;;;;;5014647;28;20057;-72
2023/05/14 04:01:00;;;;;;;14.70;8.50;;;10.80;99.90;;;;;;5015869;28;20042;-73
2023/05/14 04:03:26;;;;;;;11.02;7.97;;;10.80;99.90;;;;;;5015579;28;20050;-72
2023/05/14 04:05:52;;;;;;;12.55;8.40;;;10.80;99.90;;;;;;5016326;28;20045;-73
2023/05/14 04:08:17;;;;;;;11.65;8.10;;;10.80;99.90;;;;;;5015693;28;20042;-73
2023/05/14 04:10:43;;;;;;;12.43;8.40;;;10.70;99.90;;;;;;5015968;28;20050;-71
2023/05/14 04:13:09;;;;;;;12.15;8.23;;;10.70;99.90;;;;;;5014684;28;20038;-71
2023/05/14 04:15:37;;;;;;;12.10;8.23;;;10.70;99.90;;;;;;5014239;28;20084;-71
2023/05/14 04:18:02;;;;;;;12.57;7.97;;;10.70;99.90;;;;;;5015384;28;20102;-71
2023/05/14 04:20:28;;;;;;;10.75;8.18;;;10.70;99.90;;;;;;5015004;28;20093;-71
2023/05/14 04:22:54;;;;;;;13.27;8.35;;;10.70;99.90;;;;;;5015852;28;20089;-71
2023/05/14 04:25:20;;;;;;;12.23;7.90;;;10.70;99.90;;;;;;5014926;28;20128;-71
2023/05/14 04:27:45;;;;;;;11.48;8.25;;;10.70;99.90;;;;;;5014992;28;20054;-73
2023/05/14 04:30:11;;;;;;;10.43;7.47;;;10.70;99.90;;;;;;5014635;28;20052;-72
2023/05/14 04:32:37;;;;;;;12.02;8.10;;;10.80;99.90;;;;;;5014972;28;20089;-72
2023/05/14 04:35:04;;;;;;;12.52;8.07;;;10.80;99.90;;;;;;5014982;28;20080;-70
2023/05/14 04:37:30;;;;;;;12.13;8.05;;;10.80;99.90;;;;;;5015000;28;20093;-71
2023/05/14 04:39:56;;;;;;;11.73;7.80;;;10.80;99.90;;;;;;5014892;28;20064;-71
2023/05/14 04:42:22;;;;;;;12.68;8.40;;;10.90;99.90;;;;;;5015474;28;20125;-71
2023/05/14 04:44:47;;;;;;;12.10;8.00;;;10.90;99.90;;;;;;5014859;28;20108;-71
2023/05/14 04:47:14;;;;;;;11.38;8.05;;;10.90;99.90;;;;;;5014821;28;20139;-71
2023/05/14 04:49:39;;;;;;;11.15;7.85;;;11.00;99.90;;;;;;5014603;28;20108;-71
2023/05/14 04:52:05;;;;;;;11.60;8.23;;;11.00;99.90;;;;;;5015374;28;20045;-71
2023/05/14 04:54:31;;;;;;;11.18;8.52;;;11.10;99.90;;;;;;5015121;28;20054;-71
2023/05/14 04:57:01;;;;;;;10.80;7.82;;;11.10;99.90;;;;;;5014713;28;20170;-71
2023/05/14 04:59:30;;;;;;;12.75;8.60;;;11.20;99.90;;;;;;5014608;28;20081;-71
2023/05/14 05:01:56;;;;;;;12.65;8.20;;;11.20;99.90;;;;;;5015340;28;20442;-73
2023/05/14 05:04:22;;;;;;;11.27;8.77;;;11.30;99.90;;;;;;5013580;28;20058;-73
2023/05/14 05:06:49;;;;;;;11.80;8.38;;;11.30;99.90;;;;;;5013550;28;20056;-73
2023/05/14 05:09:16;;;;;;;13.70;8.77;;;11.40;99.90;;;;;;5014443;28;20042;-73
2023/05/14 05:11:42;;;;;;;10.05;7.78;;;11.40;99.90;;;;;;5015006;28;20050;-73
2023/05/14 05:14:08;;;;;;;12.20;8.80;;;11.50;99.90;;;;;;5014347;28;20389;-73
2023/05/14 05:16:33;;;;;;;12.63;8.52;;;11.60;99.90;;;;;;5014186;28;20507;-73
2023/05/14 05:18:59;;;;;;;11.70;8.38;;;11.60;99.90;;;;;;5013931;28;20054;-73
2023/05/14 05:21:25;;;;;;;12.50;8.20;;;11.70;99.90;;;;;;5014470;28;20084;-73
2023/05/14 05:23:51;;;;;;;13.52;8.60;;;11.70;99.90;;;;;;5014100;28;20072;-70
2023/05/14 05:26:16;;;;;;;10.85;8.45;;;11.70;99.90;;;;;;5013078;28;20041;-71
2023/05/14 05:28:42;;;;;;;13.43;8.98;;;11.70;99.90;;;;;;5012911;28;20055;-71
2023/05/14 05:31:08;;;;;;;12.45;8.30;;;11.80;99.90;;;;;;5014068;28;20064;-73
2023/05/14 05:33:34;;;;;;;13.07;9.18;;;11.80;99.90;;;;;;5013686;28;20402;-73
2023/05/14 05:35:59;;;;;;;10.68;7.93;;;11.90;99.90;;;;;;5014006;28;20042;-73
2023/05/14 05:38:25;;;;;;;12.20;8.70;;;11.90;99.90;;;;;;5013199;28;20046;-74
2023/05/14 05:40:51;;;;;;;12.13;8.75;;;11.90;99.90;;;;;;5013929;28;20050;-73
2023/05/14 05:43:17;;;;;;;11.90;8.60;;;11.90;99.90;;;;;;5014262;28;20465;-73
2023/05/14 05:45:44;;;;;;;11.60;8.75;;;12.00;99.90;;;;;;5013916;28;20089;-73
2023/05/14 05:48:10;;;;;;;11.27;8.25;;;12.00;99.90;;;;;;5014548;28;20053;-73
2023/05/14 05:50:36;;;;;;;13.18;9.82;;;12.10;99.90;;;;;;5013760;28;20061;-73
2023/05/14 05:53:02;;;;;;;11.18;8.32;;;12.20;99.90;;;;;;5014027;28;20045;-73
2023/05/14 05:55:28;;;;;;;13.45;9.30;;;12.30;99.90;;;;;;5012869;28;20058;-74
2023/05/14 05:57:54;;;;;;;13.73;9.10;;;12.30;99.90;;;;;;5013759;28;20049;-73
2023/05/14 06:00:20;;;;;;;12.90;9.00;;;12.30;99.90;;;;;;5014309;28;20053;-73
2023/05/14 06:02:46;;;;;;;15.07;8.82;;;12.40;99.90;;;;;;5012754;28;20061;-74
2023/05/14 06:05:11;;;;;;;11.95;8.63;;;12.40;99.90;;;;;;5012479;28;20092;-73
2023/05/14 06:07:38;;;;;;;12.95;8.98;;;12.40;99.90;;;;;;5015971;28;20048;-74
2023/05/14 06:10:05;;;;;;;12.18;8.55;;;12.40;99.90;;;;;;5016066;28;20107;-74
2023/05/14 06:12:30;;;;;;;13.15;8.75;;;12.40;99.90;;;;;;5015126;28;20061;-74
2023/05/14 06:14:56;;;;;;;12.48;8.85;;;12.50;99.90;;;;;;5013670;28;20394;-74
2023/05/14 06:17:26;;;;;;;14.13;9.10;;;12.50;99.90;;;;;;5013608;28;20449;-74
2023/05/14 06:19:51;;;;;;;15.57;9.05;;;12.60;99.90;;;;;;5013216;28;20490;-74
2023/05/14 06:22:18;;;;;;;13.68;9.00;;;12.60;99.90;;;;;;5014145;28;20184;-74
2023/05/14 06:24:43;;;;;;;14.07;8.82;;;12.80;99.90;;;;;;5013579;28;20417;-74
2023/05/14 06:27:10;;;;;;;14.88;9.88;;;12.90;99.90;;;;;;5013550;28;20041;-73
2023/05/14 06:29:36;;;;;;;13.38;9.07;;;12.90;99.90;;;;;;5013815;28;20057;-74
2023/05/14 06:32:03;;;;;;;14.60;8.38;;;13.00;99.90;;;;;;5012492;28;20042;-74
2023/05/14 06:34:29;;;;;;;13.70;9.18;;;13.10;99.90;;;;;;5013387;28;20053;-74
2023/05/14 06:36:56;;;;;;;13.27;8.32;;;13.10;99.90;;;;;;5013519;28;20046;-73
2023/05/14 06:39:22;;;;;;;11.85;8.52;;;13.20;99.90;;;;;;5013340;28;20050;-73
2023/05/14 06:41:47;;;;;;;12.82;8.48;;;13.20;99.90;;;;;;5012802;28;20056;-74
2023/05/14 06:44:13;;;;;;;12.40;8.32;;;13.20;99.90;;;;;;5013051;28;20052;-66
2023/05/14 06:46:39;;;;;;;14.35;8.52;;;13.30;99.90;;;;;;5013378;28;20056;-67
2023/05/14 06:49:04;;;;;;;12.65;8.43;;;13.30;99.90;;;;;;5013017;28;20042;-66
2023/05/14 06:51:30;;;;;;;13.57;8.57;;;13.40;99.90;;;;;;5016883;28;20165;-67
2023/05/14 06:53:55;;;;;;;11.93;8.15;;;13.50;99.90;;;;;;5017578;28;20052;-67
2023/05/14 06:56:21;;;;;;;12.48;8.52;;;13.50;99.90;;;;;;5016852;28;20038;-67
2023/05/14 06:58:47;;;;;;;11.55;8.27;;;13.60;99.90;;;;;;5016093;28;20058;-64
2023/05/14 07:01:13;;;;;;;13.02;8.60;;;13.70;99.90;;;;;;5016858;28;20069;-64
2023/05/14 07:03:39;;;;;;;17.75;9.00;;;13.80;99.90;;;;;;5016933;28;20051;-65
2023/05/14 07:06:05;;;;;;;13.13;8.75;;;13.90;99.90;;;;;;5016715;28;20056;-64
2023/05/14 07:08:31;;;;;;;11.88;9.30;;;14.10;99.90;;;;;;5016705;28;20053;-64
2023/05/14 07:10:57;;;;;;;14.75;8.93;;;14.30;99.90;;;;;;5016310;28;20056;-67
2023/05/14 07:13:23;;;;;;;11.85;8.75;;;14.40;99.90;;;;;;5016549;28;20034;-65
2023/05/14 07:15:50;;;;;;;12.20;8.55;;;14.70;99.90;;;;;;5016578;28;20155;-65
2023/05/14 07:18:15;;;;;;;11.32;8.88;;;14.80;99.90;;;;;;5017699;28;20060;-65
2023/05/14 07:20:41;;;;;;;15.05;9.70;;;15.00;99.90;;;;;;5016096;28;20435;-65
2023/05/14 07:23:07;;;;;;;13.23;9.13;;;15.20;99.90;;;;;;5016670;28;20054;-65
2023/05/14 07:25:33;;;;;;;13.43;8.35;;;15.40;99.90;;;;;;5016021;28;20041;-65
2023/05/14 07:27:58;;;;;;;14.02;8.93;;;15.60;99.90;;;;;;5016683;28;20057;-65
2023/05/14 07:30:24;;;;;;;12.02;8.57;;;15.70;99.90;;;;;;5015841;28;20067;-65
2023/05/14 07:32:50;;;;;;;12.10;8.25;;;15.80;99.90;;;;;;5016190;28;20046;-65
2023/05/14 07:35:16;;;;;;;12.18;8.68;;;15.90;99.90;;;;;;5015026;28;20129;-65
2023/05/14 07:37:41;;;;;;;9.60;8.43;;;15.80;99.90;;;;;;5016969;28;20042;-65
2023/05/14 07:40:08;;;;;;;12.18;8.93;;;15.90;99.90;;;;;;5016833;28;20038;-65
2023/05/14 07:42:33;;;;;;;13.32;8.60;;;15.90;99.90;;;;;;5016008;28;20124;-65
2023/05/14 07:44:59;;;;;;;12.98;9.52;;;16.00;99.90;;;;;;5015908;28;20121;-65
2023/05/14 07:47:25;;;;;;;13.02;9.05;;;16.20;99.90;;;;;;5015839;28;20049;-66
2023/05/14 07:49:55;;;;;;;11.30;9.02;;;16.30;99.90;;;;;;5016138;28;20439;-66
2023/05/14 07:52:21;;;;;;;12.93;10.13;;;16.50;99.90;;;;;;5015740;28;20100;-66
2023/05/14 07:54:47;;;;;;;12.43;9.45;;;16.60;99.90;;;;;;5015740;28;20083;-66
2023/05/14 07:57:12;;;;;;;12.25;9.43;;;16.60;99.90;;;;;;5015464;28;20049;-66
2023/05/14 07:59:38;;;;;;;10.98;9.02;;;16.70;99.90;;;;;;5015638;28;20050;-65
2023/05/14 08:02:04;;;;;;;14.85;9.43;;;16.70;99.90;;;;;;5014885;28;20042;-65
2023/05/14 08:04:29;;;;;;;12.77;8.90;;;16.70;99.90;;;;;;5015292;28;20107;-65
2023/05/14 08:06:57;;;;;;;12.23;9.18;;;16.70;99.90;;;;;;5015453;28;20049;-66
2023/05/14 08:09:23;;;;;;;15.15;9.57;;;16.70;99.90;;;;;;5015296;28;20128;-66
2023/05/14 08:11:48;;;;;;;12.27;9.07;;;16.70;99.90;;;;;;5015348;28;20446;-66
2023/05/14 08:14:14;;;;;;;10.65;8.93;;;16.70;99.90;;;;;;5015801;28;20096;-66
2023/05/14 08:16:40;;;;;;;12.23;8.98;;;16.70;99.90;;;;;;5015861;28;20141;-65
2023/05/14 08:19:06;;;;;;;12.00;9.23;;;16.70;99.90;;;;;;5015214;28;20053;-67
2023/05/14 08:21:31;;;;;;;12.38;9.07;;;16.80;99.90;;;;;;5015100;28;20057;-66
2023/05/14 08:23:57;;;;;;;13.00;8.70;;;16.90;99.90;;;;;;5015764;28;20053;-65
2023/05/14 08:26:23;;;;;;;11.48;8.93;;;17.00;99.90;;;;;;5015189;28;20042;-65
2023/05/14 08:28:49;;;;;;;12.63;8.40;;;17.00;99.90;;;;;;5015692;28;20041;-65
2023/05/14 08:31:15;;;;;;;10.15;8.98;;;17.10;99.90;;;;;;5015081;28;20046;-65
2023/05/14 08:33:40;;;;;;;10.05;7.68;;;17.20;99.90;;;;;;5013824;28;20054;-65
2023/05/14 08:36:06;;;;;;;10.52;8.07;;;17.20;99.90;;;;;;5014950;28;20053;-65
2023/05/14 08:38:32;;;;;;;12.13;8.10;;;17.20;99.90;;;;;;5014974;28;20049;-65
2023/05/14 08:40:59;;;;;;;10.82;8.57;;;17.20;99.90;;;;;;5014892;28;20403;-65
2023/05/14 08:43:39;;;;;;;11.35;8.25;;;17.20;99.90;;;;;;5014906;28;20053;-66
2023/05/14 08:46:05;;;;;;;11.15;8.40;;;17.30;99.90;;;;;;5015430;28;20057;-66
2023/05/14 08:48:33;;;;;;;10.85;8.07;;;17.30;99.90;;;;;;5015368;28;20468;-66
2023/05/14 08:50:59;;;;;;;9.85;7.97;;;17.20;99.90;;;;;;5014674;28;20060;-66
2023/05/14 08:53:25;;;;;;;9.60;8.60;;;17.10;99.90;;;;;;5014413;28;20050;-66
2023/05/14 08:55:53;;;;;;;10.40;7.97;;;17.20;99.90;;;;;;5015202;28;20545;-66
2023/05/14 08:58:19;;;;;;;9.75;8.30;;;17.30;99.90;;;;;;5014630;28;20053;-67
2023/05/14 09:00:45;;;;;;;12.18;8.35;;;17.50;99.90;;;;;;5014644;28;20453;-65
2023/05/14 09:03:11;;;;;;;10.57;8.20;;;17.70;99.90;;;;;;5014505;28;20046;-66
2023/05/14 09:05:37;;;;;;;9.43;8.05;;;17.90;99.90;;;;;;5014497;28;20061;-65
2023/05/14 09:08:03;;;;;;;11.68;8.52;;;18.20;99.90;;;;;;5014529;28;20092;-66
2023/05/14 09:10:29;;;;;;;9.90;7.90;;;18.40;99.90;;;;;;5014419;28;20045;-66
2023/05/14 09:12:55;;;;;;;7.75;6.63;;;18.50;99.90;;;;;;5013478;28;20049;-66
2023/05/14 09:15:22;;;;;;;8.68;7.53;;;18.70;99.90;;;;;;5014854;28;20483;-66
2023/05/14 09:17:48;;;;;;;8.73;7.40;;;18.80;99.90;;;;;;5013381;28;20053;-66
2023/05/14 09:20:14;;;;;;;9.80;8.40;;;19.00;99.90;;;;;;5013199;28;20053;-66
2023/05/14 09:22:39;;;;;;;8.35;7.30;;;19.20;99.90;;;;;;5015299;28;20049;-66
2023/05/14 09:25:08;;;;;;;8.23;6.45;;;19.30;99.90;;;;;;5014961;28;20122;-66
2023/05/14 09:27:35;;;;;;;8.20;6.57;;;19.50;99.90;;;;;;5014133;28;20049;-66
2023/05/14 09:30:09;;;;;;;8.55;7.13;;;19.50;99.90;;;;;;5012988;28;20054;-66
2023/05/14 09:32:36;;;;;;;7.70;6.90;;;19.70;99.90;;;;;;5014462;28;20046;-66
2023/05/14 09:35:28;;;;;;;8.93;7.22;;;19.70;99.90;;;;;;5014500;28;20049;-66
2023/05/14 09:37:54;;;;;;;9.77;7.63;;;19.80;99.90;;;;;;5012805;28;20060;-66
2023/05/14 09:40:22;;;;;;;8.43;6.55;;;19.90;99.90;;;;;;5013964;28;20041;-67
2023/05/14 09:42:48;;;;;;;8.75;7.53;;;20.00;99.90;;;;;;5012715;28;20044;-66
2023/05/14 09:45:15;;;;;;;7.00;6.30;;;20.00;99.90;;;;;;5013911;28;20042;-67
2023/05/14 09:47:41;;;;;;;7.70;6.88;;;20.10;99.90;;;;;;5013905;28;20076;-66
2023/05/14 09:50:07;;;;;;;7.85;6.85;;;20.10;99.90;;;;;;5013947;28;20124;-66
2023/05/14 09:52:34;;;;;;;8.48;6.60;;;20.20;99.90;;;;;;5012728;28;20108;-66
2023/05/14 09:55:00;;;;;;;7.22;6.50;;;20.30;99.90;;;;;;5013572;28;20096;-67
2023/05/14 09:57:26;;;;;;;7.32;5.97;;;20.50;99.90;;;;;;5014274;28;20045;-67
2023/05/14 09:59:52;;;;;;;7.85;6.45;;;20.60;99.90;;;;;;5012489;28;20054;-67
2023/05/14 10:02:25;;;;;;;6.75;5.63;;;20.70;99.90;;;;;;5012771;28;20397;-67
2023/05/14 10:04:53;;;;;;;8.50;6.53;;;20.90;99.90;;;;;;5013429;28;20057;-66
2023/05/14 10:07:29;;;;;;;7.63;6.53;;;20.90;99.90;;;;;;5013822;28;20049;-67
2023/05/14 10:10:00;;;;;;;7.63;6.35;;;20.90;99.90;;;;;;5014004;28;20111;-66
2023/05/14 10:12:32;;;;;;;6.80;5.93;;;20.90;99.90;;;;;;5013963;28;20056;-66
2023/05/14 10:15:02;;;;;;;9.07;6.25;;;21.00;99.90;;;;;;5012775;28;20391;-65
2023/05/14 10:17:31;;;;;;;8.70;6.13;;;21.10;99.90;;;;;;5013999;28;20050;-66
2023/05/14 10:19:58;;;;;;;7.10;5.80;;;21.00;99.90;;;;;;5013209;28;20056;-65
2023/05/14 10:22:30;;;;;;;7.72;5.75;;;20.80;99.90;;;;;;5011698;28;20084;-65
2023/05/14 10:24:56;;;;;;;8.18;5.60;;;20.70;99.90;;;;;;5015976;28;20391;-66
2023/05/14 10:27:22;;;;;;;7.55;6.43;;;20.60;99.90;;;;;;5016021;28;20061;-66
2023/05/14 10:29:55;;;;;;;8.32;6.03;;;20.50;99.90;;;;;;5017210;28;20045;-66
2023/05/14 10:32:24;;;;;;;7.13;5.97;;;20.50;99.90;;;;;;5017242;28;20056;-66
2023/05/14 10:34:53;;;;;;;8.32;6.28;;;20.50;99.90;;;;;;5016265;28;20050;-66
2023/05/14 10:37:25;;;;;;;6.60;5.90;;;20.60;99.90;;;;;;5015674;28;20517;-65
2023/05/14 10:40:04;;;;;;;7.47;6.00;;;20.80;99.90;;;;;;5017065;28;20112;-65
2023/05/14 10:42:36;;;;;;;7.28;6.30;;;21.00;99.90;;;;;;5017842;28;20054;-64
2023/05/14 10:45:07;;;;;;;9.10;6.10;;;21.30;99.90;;;;;;5016164;28;20479;-65
2023/05/14 10:47:35;;;;;;;7.93;6.07;;;21.60;99.90;;;;;;5015942;28;20054;-65
2023/05/14 10:50:09;;;;;;;8.02;6.18;;;21.80;99.90;;;;;;5017203;28;20442;-65
2023/05/14 10:52:35;;;;;;;11.43;6.38;;;21.90;99.90;;;;;;5016978;28;20049;-65
2023/05/14 10:55:07;;;;;;;6.60;5.85;;;21.90;99.90;;;;;;5017786;28;20512;-65
2023/05/14 10:57:35;;;;;;;6.25;5.65;;;21.90;99.90;;;;;;5015809;28;20500;-65
2023/05/14 11:00:02;;;;;;;6.43;5.80;;;22.10;99.90;;;;;;5016850;28;20053;-65
2023/05/14 11:02:33;;;;;;;6.88;5.95;;;22.20;99.90;;;;;;5016841;28;20128;-65
2023/05/14 11:05:03;;;;;;;7.75;5.72;;;22.40;99.90;;;;;;5016758;28;20085;-65
2023/05/14 11:07:37;;;;;;;7.53;5.40;;;22.60;99.90;;;;;;5017272;28;20050;-65
2023/05/14 11:10:11;;;;;;;5.70;5.10;;;22.80;99.90;;;;;;5016097;28;20050;-65
2023/05/14 11:12:39;;;;;;;6.32;4.90;;;22.90;99.90;;;;;;5016511;28;20050;-65
2023/05/14 11:15:13;;;;;;;5.85;5.18;;;22.90;99.90;;;;;;5016813;28;20413;-65
2023/05/14 11:17:41;;;;;;;6.22;4.85;;;22.90;99.90;;;;;;5015805;28;20057;-65
2023/05/14 11:20:08;;;;;;;6.03;5.43;;;22.90;99.90;;;;;;5016309;28;20081;-65
2023/05/14 11:22:35;;;;;;;6.03;5.43;;;22.90;99.90;;;;;;5016159;28;20133;-65
2023/05/14 11:25:01;;;;;;;6.30;5.18;;;22.80;99.90;;;;;;5016002;28;20061;-65
2023/05/14 11:27:27;;;;;;;6.90;6.18;;;22.70;99.90;;;;;;5016275;28;20053;-65
2023/05/14 11:29:54;;;;;;;6.47;5.80;;;22.80;99.90;;;;;;5016384;28;20104;-65
2023/05/14 11:32:20;;;;;;;8.93;6.10;;;22.90;99.90;;;;;;5016555;28;20057;-65
2023/05/14 11:34:46;;;;;;;6.70;5.28;;;23.20;99.90;;;;;;5015878;28;20053;-65
2023/05/14 11:37:16;;;;;;;5.47;4.68;;;23.20;99.90;;;;;;5015999;28;20091;-65
2023/05/14 11:39:49;;;;;;;6.72;5.90;;;23.40;99.90;;;;;;5015811;28;20526;-65
2023/05/14 11:42:17;;;;;;;8.15;5.63;;;23.30;99.90;;;;;;5016048;28;20398;-64
2023/05/14 11:44:45;;;;;;;6.90;5.43;;;23.20;99.90;;;;;;5016719;28;20112;-65
2023/05/14 11:47:11;;;;;;;6.85;5.70;;;23.20;99.90;;;;;;5015210;28;20538;-65
2023/05/14 11:49:37;;;;;;;6.05;5.38;;;23.20;99.90;;;;;;5015743;28;20128;-65
2023/05/14 11:52:09;;;;;;;5.28;4.70;;;23.20;99.90;;;;;;5015851;28;20128;-65
2023/05/14 11:54:36;;;;;;;5.35;4.72;;;23.30;99.90;;;;;;5016040;28;20050;-65
2023/05/14 11:57:11;;;;;;;5.07;4.57;;;23.40;99.90;;;;;;5014827;28;20058;-65
2023/05/14 11:59:37;;;;;;;5.78;4.55;;;23.60;99.90;;;;;;5015870;28;20056;-65
2023/05/14 12:02:04;;;;;;;5.82;4.78;;;23.90;99.90;;;;;;5016838;28;20351;-65
2023/05/14 12:04:30;;;;;;;6.05;4.95;;;24.10;99.90;;;;;;5016274;28;20050;-65
2023/05/14 12:06:58;;;;;;;5.05;4.55;;;24.30;99.90;;;;;;5015653;28;20050;-65
2023/05/14 12:09:24;;;;;;;5.57;4.85;;;24.50;99.90;;;;;;5014702;28;20125;-65
2023/05/14 12:11:51;;;;;;;5.85;5.10;;;24.60;99.90;;;;;;5015596;28;20084;-65
2023/05/14 12:14:21;;;;;;;6.20;4.53;;;24.70;99.90;;;;;;5015471;28;20042;-65
2023/05/14 12:16:49;;;;;;;5.38;4.22;;;24.80;99.90;;;;;;5016043;28;20045;-65
2023/05/14 12:19:19;;;;;;;5.65;4.70;;;24.90;99.90;;;;;;5014496;28;20050;-65
2023/05/14 12:21:47;;;;;;;5.30;4.45;;;24.90;99.90;;;;;;5015639;28;20115;-65
2023/05/14 12:24:20;;;;;;;4.85;4.20;;;24.90;99.90;;;;;;5015297;28;20049;-65
2023/05/14 12:26:47;;;;;;;6.13;4.05;;;24.90;99.90;;;;;;5015229;28;20054;-65
2023/05/14 12:29:15;;;;;;;5.38;4.00;;;24.90;99.90;;;;;;5015112;28;20053;-65
2023/05/14 12:31:46;;;;;;;5.47;4.03;;;25.00;99.90;;;;;;5014968;28;20132;-65
2023/05/14 12:34:12;;;;;;;5.80;4.10;;;25.10;99.90;;;;;;5015607;28;20121;-65
2023/05/14 12:36:38;;;;;;;5.20;3.88;;;25.00;99.90;;;;;;5015334;28;20046;-65
2023/05/14 12:39:04;;;;;;;6.32;4.72;;;25.00;99.90;;;;;;5015028;28;20390;-65